createdAt,value
2022-11-26T00:00:16.704Z,95.21
2022-11-26T00:01:16.692Z,94.59
2022-11-26T00:02:16.834Z,94.79
2022-11-26T00:03:16.737Z,93.97
2022-11-26T00:04:16.731Z,94.48
2022-11-26T00:05:16.673Z,94.48
2022-11-26T00:06:16.667Z,94.90
2022-11-26T00:07:16.697Z,94.79
2022-11-26T00:08:16.678Z,94.32
2022-11-26T00:09:16.750Z,93.35
2022-11-26T00:10:16.650Z,93.29
2022-11-26T00:11:16.641Z,93.60
2022-11-26T00:12:16.638Z,94.32
2022-11-26T00:13:16.632Z,94.53
2022-11-26T00:14:16.789Z,94.94
2022-11-26T00:15:16.619Z,95.15
2022-11-26T00:16:16.712Z,95.77
2022-11-26T00:17:16.612Z,96.19
2022-11-26T00:18:16.609Z,96.49
2022-11-26T00:19:16.609Z,97.01
2022-11-26T00:20:16.594Z,97.07
2022-11-26T00:21:16.591Z,97.38
2022-11-26T00:22:16.586Z,97.59
2022-11-26T00:23:16.578Z,96.86
2022-11-26T00:24:16.594Z,97.49
2022-11-26T00:25:16.569Z,97.79
2022-11-26T00:26:16.565Z,97.69
2022-11-26T00:27:16.558Z,97.89
2022-11-26T00:28:16.552Z,97.85
2022-11-26T00:29:16.547Z,97.96
2022-11-26T00:30:16.541Z,97.64
2022-11-26T00:31:16.653Z,97.23
2022-11-26T00:32:16.535Z,98.16
2022-11-26T00:33:16.532Z,97.75
2022-11-26T00:34:16.527Z,97.71
2022-11-26T00:35:16.520Z,97.29
2022-11-26T00:36:16.512Z,97.60
2022-11-26T00:37:16.513Z,97.39
2022-11-26T00:38:16.504Z,97.39
2022-11-26T00:39:16.506Z,97.29
2022-11-26T00:40:16.516Z,97.19
2022-11-26T00:41:16.513Z,96.67
2022-11-26T00:42:16.882Z,96.05
2022-11-26T00:43:16.489Z,96.26
2022-11-26T00:44:16.493Z,96.26
2022-11-26T00:45:16.474Z,96.47
2022-11-26T00:46:16.592Z,96.15
2022-11-26T00:47:16.484Z,95.43
2022-11-26T00:48:16.456Z,94.60
2022-11-26T00:49:16.451Z,94.54
2022-11-26T00:50:16.444Z,94.54
2022-11-26T00:51:16.437Z,94.34
2022-11-26T00:52:16.441Z,93.62
2022-11-26T00:53:16.427Z,93.20
2022-11-26T00:54:16.428Z,92.83
2022-11-26T00:55:16.440Z,92.42
2022-11-26T00:56:16.430Z,92.63
2022-11-26T00:57:16.418Z,92.93
2022-11-26T00:58:16.404Z,93.04
2022-11-26T00:59:16.399Z,93.97
2022-11-26T01:00:16.399Z,93.91
2022-11-26T01:01:16.502Z,94.18
2022-11-26T01:02:16.460Z,93.39
2022-11-26T01:03:16.373Z,92.87
2022-11-26T01:04:16.372Z,91.74
2022-11-26T01:05:16.368Z,92.05
2022-11-26T01:06:16.369Z,92.30
2022-11-26T01:07:16.437Z,92.50
2022-11-26T01:08:16.355Z,92.50
2022-11-26T01:09:16.344Z,92.61
2022-11-26T01:10:16.339Z,93.43
2022-11-26T01:11:16.334Z,93.33
2022-11-26T01:12:16.352Z,93.02
2022-11-26T01:13:16.328Z,94.16
2022-11-26T01:14:16.324Z,94.68
2022-11-26T01:15:16.311Z,94.68
2022-11-26T01:16:16.360Z,94.89
2022-11-26T01:17:16.303Z,95.40
2022-11-26T01:18:16.299Z,96.54
2022-11-26T01:19:16.291Z,96.85
2022-11-26T01:20:16.288Z,96.54
2022-11-26T01:21:16.280Z,96.33
2022-11-26T01:22:16.281Z,96.91
2022-11-26T01:23:16.276Z,97.11
2022-11-26T01:24:16.266Z,97.11
2022-11-26T01:25:16.267Z,96.91
2022-11-26T01:26:16.256Z,97.11
2022-11-26T01:27:16.251Z,96.97
2022-11-26T01:28:16.308Z,96.45
2022-11-26T01:29:16.241Z,96.86
2022-11-26T01:30:16.236Z,96.97
2022-11-26T01:31:16.245Z,96.97
2022-11-26T01:32:16.231Z,96.76
2022-11-26T01:33:16.216Z,96.14
2022-11-26T01:34:16.225Z,95.62
2022-11-26T01:35:16.207Z,94.69
2022-11-26T01:36:16.203Z,94.84
2022-11-26T01:37:16.198Z,94.84
2022-11-26T01:38:16.195Z,95.10
2022-11-26T01:39:16.187Z,95.52
2022-11-26T01:40:16.187Z,95.52
2022-11-26T01:41:16.180Z,95.21
2022-11-26T01:42:16.624Z,95.10
2022-11-26T01:43:16.167Z,94.84
2022-11-26T01:44:16.184Z,94.69
2022-11-26T01:45:16.160Z,94.73
2022-11-26T01:46:16.250Z,94.73
2022-11-26T01:47:16.143Z,94.69
2022-11-26T01:48:16.141Z,94.79
2022-11-26T01:49:16.136Z,95.00
2022-11-26T01:50:16.134Z,95.52
2022-11-26T01:51:16.124Z,95.31
2022-11-26T01:52:16.125Z,95.94
2022-11-26T01:53:16.116Z,96.55
2022-11-26T01:54:16.109Z,95.62
2022-11-26T01:55:16.103Z,95.00
2022-11-26T01:56:16.109Z,94.69
2022-11-26T01:57:16.125Z,94.48
2022-11-26T01:58:16.088Z,94.48
2022-11-26T01:59:16.082Z,94.90
2022-11-26T02:00:16.100Z,95.25
2022-11-26T02:01:16.162Z,95.52
2022-11-26T02:02:16.165Z,94.69
2022-11-26T02:03:16.059Z,94.48
2022-11-26T02:04:16.057Z,94.69
2022-11-26T02:05:16.053Z,94.79
2022-11-26T02:06:16.052Z,94.79
2022-11-26T02:07:16.334Z,94.59
2022-11-26T02:08:16.038Z,93.55
2022-11-26T02:09:16.030Z,92.67
2022-11-26T02:10:16.026Z,91.94
2022-11-26T02:11:16.021Z,91.26
2022-11-26T02:12:16.015Z,90.80
2022-11-26T02:13:16.008Z,90.74
2022-11-26T02:14:16.008Z,91.67
2022-11-26T02:15:15.999Z,92.30
2022-11-26T02:16:16.085Z,92.61
2022-11-26T02:17:15.989Z,93.02
2022-11-26T02:18:15.986Z,91.82
2022-11-26T02:19:15.980Z,90.83
2022-11-26T02:20:15.975Z,91.76
2022-11-26T02:21:15.965Z,91.55
2022-11-26T02:22:15.965Z,92.53
2022-11-26T02:23:15.957Z,93.15
2022-11-26T02:24:15.953Z,93.56
2022-11-26T02:25:15.950Z,94.45
2022-11-26T02:26:15.939Z,94.81
2022-11-26T02:27:15.933Z,94.76
2022-11-26T02:28:15.930Z,94.97
2022-11-26T02:29:15.921Z,94.76
2022-11-26T02:30:15.918Z,94.66
2022-11-26T02:31:15.954Z,94.45
2022-11-26T02:32:15.926Z,93.31
2022-11-26T02:33:15.901Z,93.15
2022-11-26T02:34:15.895Z,93.00
2022-11-26T02:35:15.891Z,92.94
2022-11-26T02:36:15.888Z,93.46
2022-11-26T02:37:15.882Z,93.46
2022-11-26T02:38:15.874Z,93.77
2022-11-26T02:39:15.872Z,94.49
2022-11-26T02:40:15.864Z,94.91
2022-11-26T02:41:15.858Z,94.70
2022-11-26T02:42:15.853Z,95.01
2022-11-26T02:43:16.199Z,94.81
2022-11-26T02:44:15.840Z,94.70
2022-11-26T02:45:15.837Z,94.91
2022-11-26T02:46:15.890Z,95.01
2022-11-26T02:47:15.826Z,94.81
2022-11-26T02:48:15.839Z,94.74
2022-11-26T02:49:15.815Z,95.12
2022-11-26T02:50:15.808Z,95.32
2022-11-26T02:51:15.809Z,95.74
2022-11-26T02:52:15.804Z,96.36
2022-11-26T02:53:15.792Z,96.21
2022-11-26T02:54:15.786Z,95.64
2022-11-26T02:55:15.782Z,94.76
2022-11-26T02:56:15.774Z,94.49
2022-11-26T02:57:15.795Z,92.53
2022-11-26T02:58:15.766Z,93.04
2022-11-26T02:59:15.772Z,92.74
2022-11-26T03:00:15.753Z,92.53
2022-11-26T03:01:15.823Z,92.68
2022-11-26T03:02:15.747Z,92.57
2022-11-26T03:03:15.742Z,92.30
2022-11-26T03:04:15.846Z,91.89
2022-11-26T03:05:15.727Z,92.41
2022-11-26T03:06:15.719Z,93.54
2022-11-26T03:07:15.845Z,93.54
2022-11-26T03:08:15.711Z,94.58
2022-11-26T03:09:15.706Z,94.89
2022-11-26T03:10:15.701Z,94.89
2022-11-26T03:11:15.695Z,95.41
2022-11-26T03:12:15.726Z,95.10
2022-11-26T03:13:15.682Z,94.89
2022-11-26T03:14:15.678Z,93.90
2022-11-26T03:15:15.675Z,93.28
2022-11-26T03:16:15.705Z,93.38
2022-11-26T03:17:15.659Z,92.45
2022-11-26T03:18:15.653Z,93.38
2022-11-26T03:19:15.648Z,92.86
2022-11-26T03:20:15.661Z,93.53
2022-11-26T03:21:15.636Z,93.32
2022-11-26T03:22:15.642Z,92.90
2022-11-26T03:23:15.648Z,93.63
2022-11-26T03:24:15.679Z,94.67
2022-11-26T03:25:15.618Z,94.88
2022-11-26T03:26:15.615Z,95.09
2022-11-26T03:27:15.603Z,95.98
2022-11-26T03:28:15.595Z,95.98
2022-11-26T03:29:15.591Z,95.46
2022-11-26T03:30:15.595Z,94.94
2022-11-26T03:31:15.640Z,94.67
2022-11-26T03:32:15.575Z,94.57
2022-11-26T03:33:15.570Z,94.78
2022-11-26T03:34:15.560Z,95.09
2022-11-26T03:35:15.556Z,94.78
2022-11-26T03:36:15.573Z,94.98
2022-11-26T03:37:15.546Z,94.98
2022-11-26T03:38:15.543Z,95.61
2022-11-26T03:39:15.535Z,96.02
2022-11-26T03:40:15.537Z,96.23
2022-11-26T03:41:15.523Z,96.75
2022-11-26T03:42:15.516Z,96.44
2022-11-26T03:43:15.516Z,97.16
2022-11-26T03:44:15.507Z,97.16
2022-11-26T03:45:15.498Z,96.44
2022-11-26T03:46:15.516Z,96.39
2022-11-26T03:47:15.489Z,96.64
2022-11-26T03:48:15.481Z,96.50
2022-11-26T03:49:15.478Z,96.60
2022-11-26T03:50:15.468Z,96.50
2022-11-26T03:51:15.465Z,96.08
2022-11-26T03:52:15.479Z,96.50
2022-11-26T03:53:15.455Z,95.62
2022-11-26T03:54:15.445Z,95.15
2022-11-26T03:55:15.462Z,94.73
2022-11-26T03:56:15.434Z,93.28
2022-11-26T03:57:15.436Z,93.49
2022-11-26T03:58:15.425Z,93.59
2022-11-26T03:59:15.422Z,94.78
2022-11-26T04:00:15.416Z,95.15
2022-11-26T04:01:15.450Z,95.15
2022-11-26T04:02:15.411Z,95.09
2022-11-26T04:03:15.428Z,94.94
2022-11-26T04:04:15.389Z,94.98
2022-11-26T04:05:15.383Z,95.09
2022-11-26T04:06:15.378Z,94.98
2022-11-26T04:07:15.442Z,94.98
2022-11-26T04:08:15.398Z,95.40
2022-11-26T04:09:15.362Z,95.09
2022-11-26T04:10:15.353Z,95.19
2022-11-26T04:11:15.357Z,95.40
2022-11-26T04:12:15.345Z,95.61
2022-11-26T04:13:15.339Z,96.02
2022-11-26T04:14:15.333Z,96.44
2022-11-26T04:15:15.327Z,96.44
2022-11-26T04:16:15.426Z,96.75
2022-11-26T04:17:15.320Z,96.70
2022-11-26T04:18:15.310Z,97.43
2022-11-26T04:19:15.302Z,97.43
2022-11-26T04:20:15.295Z,96.81
2022-11-26T04:21:15.289Z,96.55
2022-11-26T04:22:15.283Z,95.67
2022-11-26T04:23:15.284Z,95.04
2022-11-26T04:24:15.297Z,95.04
2022-11-26T04:25:15.270Z,94.63
2022-11-26T04:26:15.259Z,93.28
2022-11-26T04:27:15.257Z,93.80
2022-11-26T04:28:15.305Z,93.70
2022-11-26T04:29:15.247Z,92.97
2022-11-26T04:30:15.237Z,93.49
2022-11-26T04:31:15.302Z,92.90
2022-11-26T04:32:15.224Z,93.12
2022-11-26T04:33:15.222Z,92.69
2022-11-26T04:34:15.214Z,92.69
2022-11-26T04:35:15.210Z,92.94
2022-11-26T04:36:15.201Z,93.26
2022-11-26T04:37:15.199Z,93.16
2022-11-26T04:38:15.193Z,93.26
2022-11-26T04:39:15.187Z,93.88
2022-11-26T04:40:15.198Z,94.92
2022-11-26T04:41:15.174Z,94.30
2022-11-26T04:42:15.165Z,95.13
2022-11-26T04:43:15.165Z,95.07
2022-11-26T04:44:15.156Z,95.03
2022-11-26T04:45:15.162Z,95.13
2022-11-26T04:46:15.259Z,95.44
2022-11-26T04:47:15.143Z,95.23
2022-11-26T04:48:15.131Z,95.28
2022-11-26T04:49:15.126Z,95.59
2022-11-26T04:50:15.118Z,95.75
2022-11-26T04:51:15.114Z,95.54
2022-11-26T04:52:15.116Z,95.65
2022-11-26T04:53:15.106Z,95.86
2022-11-26T04:54:15.094Z,96.69
2022-11-26T04:55:15.091Z,96.44
2022-11-26T04:56:15.106Z,95.65
2022-11-26T04:57:15.081Z,95.54
2022-11-26T04:58:15.071Z,95.34
2022-11-26T04:59:15.067Z,95.23
2022-11-26T05:00:15.061Z,95.23
2022-11-26T05:01:15.152Z,95.23
2022-11-26T05:02:15.117Z,94.88
2022-11-26T05:03:15.043Z,94.88
2022-11-26T05:04:15.038Z,94.71
2022-11-26T05:05:15.031Z,94.09
2022-11-26T05:06:15.024Z,93.88
2022-11-26T05:07:15.070Z,93.22
2022-11-26T05:08:15.014Z,93.47
2022-11-26T05:09:15.007Z,94.20
2022-11-26T05:10:14.998Z,94.71
2022-11-26T05:11:14.996Z,94.36
2022-11-26T05:12:15.006Z,94.88
2022-11-26T05:13:14.985Z,94.98
2022-11-26T05:14:14.978Z,94.67
2022-11-26T05:15:14.972Z,93.63
2022-11-26T05:16:14.994Z,92.49
2022-11-26T05:17:14.962Z,92.22
2022-11-26T05:18:14.950Z,92.63
2022-11-26T05:19:15.445Z,92.53
2022-11-26T05:20:14.942Z,93.51
2022-11-26T05:21:14.937Z,92.99
2022-11-26T05:22:14.927Z,92.88
2022-11-26T05:23:14.926Z,93.51
2022-11-26T05:24:14.921Z,93.20
2022-11-26T05:25:14.912Z,93.66
2022-11-26T05:26:14.902Z,93.97
2022-11-26T05:27:14.899Z,94.90
2022-11-26T05:28:14.927Z,94.90
2022-11-26T05:29:14.885Z,95.01
2022-11-26T05:30:14.881Z,95.07
2022-11-26T05:31:14.913Z,95.84
2022-11-26T05:32:14.866Z,96.00
2022-11-26T05:33:14.860Z,95.59
2022-11-26T05:34:14.857Z,95.07
2022-11-26T05:35:14.853Z,94.18
2022-11-26T05:36:14.847Z,93.87
2022-11-26T05:37:14.847Z,93.87
2022-11-26T05:38:14.832Z,93.55
2022-11-26T05:39:14.829Z,93.80
2022-11-26T05:40:14.819Z,93.29
2022-11-26T05:41:14.815Z,93.18
2022-11-26T05:42:14.807Z,93.39
2022-11-26T05:43:14.803Z,93.60
2022-11-26T05:44:14.814Z,94.01
2022-11-26T05:45:14.796Z,94.89
2022-11-26T05:46:14.879Z,94.99
2022-11-26T05:47:14.781Z,95.05
2022-11-26T05:48:14.773Z,95.40
2022-11-26T05:49:14.969Z,95.67
2022-11-26T05:50:14.758Z,95.67
2022-11-26T05:51:14.755Z,95.89
2022-11-26T05:52:14.759Z,96.09
2022-11-26T05:53:14.749Z,96.09
2022-11-26T05:54:14.736Z,96.61
2022-11-26T05:55:14.725Z,96.78
2022-11-26T05:56:14.727Z,96.67
2022-11-26T05:57:14.714Z,95.99
2022-11-26T05:58:14.709Z,95.78
2022-11-26T05:59:14.705Z,95.78
2022-11-26T06:00:14.742Z,95.63
2022-11-26T06:01:14.735Z,95.84
2022-11-26T06:02:14.881Z,96.04
2022-11-26T06:03:19.782Z,95.73
2022-11-26T06:04:14.670Z,95.94
2022-11-26T06:05:14.664Z,96.36
2022-11-26T06:06:14.657Z,96.88
2022-11-26T06:07:14.695Z,97.09
2022-11-26T06:08:14.644Z,97.09
2022-11-26T06:09:14.640Z,97.04
2022-11-26T06:10:14.634Z,97.45
2022-11-26T06:11:14.636Z,97.35
2022-11-26T06:12:14.624Z,97.45
2022-11-26T06:13:14.619Z,97.52
2022-11-26T06:14:14.609Z,97.00
2022-11-26T06:15:14.606Z,96.89
2022-11-26T06:16:14.700Z,95.65
2022-11-26T06:17:14.592Z,94.86
2022-11-26T06:18:14.584Z,95.28
2022-11-26T06:19:14.581Z,94.71
2022-11-26T06:20:14.571Z,94.03
2022-11-26T06:21:14.565Z,94.03
2022-11-26T06:22:14.561Z,94.03
2022-11-26T06:23:14.557Z,94.65
2022-11-26T06:24:14.551Z,95.28
2022-11-26T06:25:14.552Z,95.07
2022-11-26T06:26:14.536Z,95.38
2022-11-26T06:27:14.533Z,95.59
2022-11-26T06:28:14.521Z,95.17
2022-11-26T06:29:14.517Z,95.38
2022-11-26T06:30:14.511Z,94.96
2022-11-26T06:31:14.568Z,95.28
2022-11-26T06:32:14.519Z,94.59
2022-11-26T06:33:14.495Z,94.76
2022-11-26T06:34:14.488Z,94.49
2022-11-26T06:35:14.484Z,94.28
2022-11-26T06:36:14.474Z,94.18
2022-11-26T06:37:14.468Z,94.70
2022-11-26T06:38:14.468Z,95.01
2022-11-26T06:39:14.457Z,95.21
2022-11-26T06:40:14.487Z,95.21
2022-11-26T06:41:14.447Z,95.32
2022-11-26T06:42:14.436Z,95.21
2022-11-26T06:43:14.437Z,95.32
2022-11-26T06:44:14.427Z,95.32
2022-11-26T06:45:14.419Z,95.11
2022-11-26T06:46:14.472Z,95.21
2022-11-26T06:47:14.407Z,95.11
2022-11-26T06:48:14.418Z,95.32
2022-11-26T06:49:14.746Z,94.38
2022-11-26T06:50:14.387Z,93.66
2022-11-26T06:51:14.379Z,93.80
2022-11-26T06:52:14.378Z,93.18
2022-11-26T06:53:14.367Z,93.29
2022-11-26T06:54:14.363Z,93.29
2022-11-26T06:55:14.355Z,93.39
2022-11-26T06:56:18.493Z,93.29
2022-11-26T06:57:14.344Z,93.80
2022-11-26T06:58:14.343Z,93.91
2022-11-26T06:59:14.333Z,94.84
2022-11-26T07:00:14.354Z,95.36
2022-11-26T07:01:14.429Z,95.47
2022-11-26T07:02:14.388Z,95.53
2022-11-26T07:03:14.304Z,95.63
2022-11-26T07:04:14.325Z,96.04
2022-11-26T07:05:14.295Z,96.73
2022-11-26T07:06:14.290Z,96.52
2022-11-26T07:07:14.320Z,96.52
2022-11-26T07:08:14.276Z,96.73
2022-11-26T07:09:14.267Z,95.65
2022-11-26T07:10:14.265Z,95.17
2022-11-26T07:11:14.259Z,94.76
2022-11-26T07:12:14.255Z,93.82
2022-11-26T07:13:14.241Z,93.41
2022-11-26T07:14:14.243Z,92.72
2022-11-26T07:15:14.235Z,93.76
2022-11-26T07:16:14.310Z,93.45
2022-11-26T07:17:14.216Z,93.55
2022-11-26T07:18:14.214Z,93.66
2022-11-26T07:19:14.204Z,94.86
2022-11-26T07:20:14.249Z,94.49
2022-11-26T07:21:14.199Z,95.07
2022-11-26T07:22:14.189Z,95.01
2022-11-26T07:23:14.180Z,95.11
2022-11-26T07:24:14.177Z,95.11
2022-11-26T07:25:14.172Z,95.01
2022-11-26T07:26:14.164Z,95.63
2022-11-26T07:27:14.162Z,95.59
2022-11-26T07:28:14.153Z,96.11
2022-11-26T07:29:14.148Z,96.11
2022-11-26T07:30:14.139Z,96.52
2022-11-26T07:31:16.748Z,97.04
2022-11-26T07:32:14.130Z,96.73
2022-11-26T07:33:14.119Z,96.83
2022-11-26T07:34:14.123Z,96.31
2022-11-26T07:35:14.111Z,96.00
2022-11-26T07:36:14.125Z,95.59
2022-11-26T07:37:14.094Z,95.59
2022-11-26T07:38:14.089Z,95.48
2022-11-26T07:39:14.081Z,95.07
2022-11-26T07:40:14.085Z,95.59
2022-11-26T07:41:14.069Z,95.17
2022-11-26T07:42:14.104Z,95.17
2022-11-26T07:43:14.061Z,95.59
2022-11-26T07:44:14.057Z,95.17
2022-11-26T07:45:14.045Z,95.48
2022-11-26T07:46:14.158Z,95.59
2022-11-26T07:47:14.033Z,96.21
2022-11-26T07:48:16.971Z,96.73
2022-11-26T07:49:14.017Z,96.52
2022-11-26T07:50:14.015Z,96.79
2022-11-26T07:51:14.007Z,97.00
2022-11-26T07:52:14.041Z,97.31
2022-11-26T07:53:13.997Z,97.27
2022-11-26T07:54:13.991Z,97.16
2022-11-26T07:55:13.983Z,97.16
2022-11-26T07:56:13.977Z,96.95
2022-11-26T07:57:13.974Z,96.54
2022-11-26T07:58:13.965Z,96.23
2022-11-26T07:59:13.957Z,96.95
2022-11-26T08:00:13.959Z,96.81
2022-11-26T08:01:14.008Z,96.81
2022-11-26T08:02:13.984Z,96.08
2022-11-26T08:03:13.933Z,96.60
2022-11-26T08:04:13.932Z,96.08
2022-11-26T08:05:13.920Z,96.70
2022-11-26T08:06:13.913Z,96.91
2022-11-26T08:07:21.889Z,97.02
2022-11-26T08:08:13.949Z,97.22
2022-11-26T08:09:13.897Z,97.12
2022-11-26T08:10:13.890Z,96.91
2022-11-26T08:11:13.892Z,97.43
2022-11-26T08:12:13.879Z,97.28
2022-11-26T08:13:13.870Z,97.12
2022-11-26T08:14:13.869Z,97.59
2022-11-26T08:15:13.858Z,97.90
2022-11-26T08:16:13.948Z,97.59
2022-11-26T08:17:13.847Z,97.65
2022-11-26T08:18:13.843Z,97.65
2022-11-26T08:19:13.836Z,97.96
2022-11-26T08:20:13.832Z,98.17
2022-11-26T08:21:13.822Z,97.96
2022-11-26T08:22:13.836Z,97.96
2022-11-26T08:23:13.814Z,98.38
2022-11-26T08:24:13.829Z,98.43
2022-11-26T08:25:13.805Z,98.64
2022-11-26T08:26:25.204Z,98.43
2022-11-26T08:27:13.785Z,98.28
2022-11-26T08:28:13.783Z,98.80
2022-11-26T08:29:13.776Z,98.70
2022-11-26T08:30:13.777Z,98.95
2022-11-26T08:31:13.798Z,99.11
2022-11-26T08:32:13.766Z,98.70
2022-11-26T08:33:13.750Z,98.91
2022-11-26T08:34:13.747Z,98.60
2022-11-26T08:35:13.741Z,98.65
2022-11-26T08:36:13.736Z,98.55
2022-11-26T08:37:13.731Z,98.65
2022-11-26T08:38:13.722Z,98.65
2022-11-26T08:39:13.722Z,98.86
2022-11-26T08:40:14.153Z,98.65
2022-11-26T08:41:13.705Z,98.50
2022-11-26T08:42:13.699Z,98.82
2022-11-26T08:43:13.701Z,98.71
2022-11-26T08:44:13.690Z,98.61
2022-11-26T08:45:13.695Z,98.61
2022-11-26T08:46:13.788Z,98.96
2022-11-26T08:47:13.679Z,99.13
2022-11-26T08:48:13.684Z,99.13
2022-11-26T08:49:13.667Z,99.02
2022-11-26T08:50:13.653Z,98.82
2022-11-26T08:51:13.648Z,98.71
2022-11-26T08:52:13.643Z,98.82
2022-11-26T08:53:13.639Z,99.33
2022-11-26T08:54:13.634Z,99.54
2022-11-26T08:55:13.623Z,99.85
2022-11-26T08:56:13.647Z,99.60
2022-11-26T08:57:13.621Z,99.70
2022-11-26T08:58:13.608Z,99.99
2022-11-26T08:59:13.600Z,99.80
2022-11-26T09:00:13.598Z,99.86
2022-11-26T09:01:13.660Z,99.76
2022-11-26T09:02:18.453Z,99.44
2022-11-26T09:03:13.625Z,99.24
2022-11-26T09:04:13.583Z,99.86
2022-11-26T09:05:13.637Z,99.86
2022-11-26T09:06:13.564Z,99.86
2022-11-26T09:07:13.662Z,99.96
2022-11-26T09:08:13.565Z,99.96
2022-11-26T09:09:13.915Z,99.86
2022-11-26T09:10:13.539Z,99.99
2022-11-26T09:11:13.536Z,99.61
2022-11-26T09:12:13.553Z,99.82
2022-11-26T09:13:17.252Z,99.82
2022-11-26T09:14:13.520Z,99.82
2022-11-26T09:15:13.588Z,99.71
2022-11-26T09:16:13.553Z,99.99
2022-11-26T09:17:13.505Z,99.99
2022-11-26T09:18:13.496Z,99.99
2022-11-26T09:19:13.487Z,99.99
2022-11-26T09:20:13.488Z,99.99
2022-11-26T09:21:13.479Z,99.99
2022-11-26T09:22:13.474Z,99.99
2022-11-26T09:23:13.473Z,99.99
2022-11-26T09:24:13.467Z,99.99
2022-11-26T09:25:13.463Z,99.99
2022-11-26T09:26:13.456Z,99.99
2022-11-26T09:27:13.445Z,99.99
2022-11-26T09:28:13.464Z,99.99
2022-11-26T09:29:13.434Z,99.99
2022-11-26T09:30:13.430Z,99.99
2022-11-26T09:31:13.474Z,99.99
2022-11-26T09:32:24.371Z,99.99
2022-11-26T09:33:13.412Z,99.99
2022-11-26T09:34:13.408Z,99.99
2022-11-26T09:35:13.402Z,99.99
2022-11-26T09:36:13.400Z,99.99
2022-11-26T09:37:13.391Z,99.99
2022-11-26T09:38:13.386Z,99.99
2022-11-26T09:39:13.379Z,99.99
2022-11-26T09:40:13.377Z,99.99
2022-11-26T09:41:13.366Z,99.99
2022-11-26T09:42:13.367Z,99.99
2022-11-26T09:43:13.359Z,99.99
2022-11-26T09:44:13.376Z,99.99
2022-11-26T09:45:13.350Z,99.99
2022-11-26T09:46:13.431Z,99.99
2022-11-26T09:47:13.694Z,99.99
2022-11-26T09:48:13.335Z,99.99
2022-11-26T09:49:13.327Z,99.99
2022-11-26T09:50:13.324Z,99.99
2022-11-26T09:51:13.318Z,99.99
2022-11-26T09:52:13.313Z,99.99
2022-11-26T09:53:13.306Z,99.99
2022-11-26T09:54:13.504Z,99.99
2022-11-26T09:55:13.294Z,99.99
2022-11-26T09:56:13.294Z,99.99
2022-11-26T09:57:13.283Z,99.99
2022-11-26T09:58:13.278Z,99.99
2022-11-26T09:59:13.275Z,99.99
2022-11-26T10:00:13.290Z,99.99
2022-11-26T10:01:13.345Z,99.99
2022-11-26T10:02:13.314Z,99.99
2022-11-26T10:03:13.265Z,99.99
2022-11-26T10:04:13.252Z,99.99
2022-11-26T10:05:15.929Z,99.99
2022-11-26T10:06:13.253Z,99.99
2022-11-26T10:07:13.284Z,99.99
2022-11-26T10:08:13.237Z,99.99
2022-11-26T10:09:13.229Z,99.99
2022-11-26T10:10:13.221Z,99.99
2022-11-26T10:11:13.218Z,99.99
2022-11-26T10:12:24.753Z,99.99
2022-11-26T10:13:19.200Z,99.99
2022-11-26T10:14:13.198Z,99.99
2022-11-26T10:15:13.191Z,99.99
2022-11-26T10:16:13.247Z,99.99
2022-11-26T10:17:13.179Z,99.99
2022-11-26T10:18:13.177Z,99.99
2022-11-26T10:19:13.169Z,99.99
2022-11-26T10:20:13.166Z,99.99
2022-11-26T10:21:13.157Z,99.99
2022-11-26T10:22:13.156Z,99.99
2022-11-26T10:23:13.152Z,99.99
2022-11-26T10:24:13.148Z,99.99
2022-11-26T10:25:13.138Z,99.99
2022-11-26T10:26:13.136Z,99.99
2022-11-26T10:27:13.129Z,99.99
2022-11-26T10:28:13.127Z,99.99
2022-11-26T10:29:13.120Z,99.99
2022-11-26T10:30:13.117Z,99.99
2022-11-26T10:31:13.169Z,99.99
2022-11-26T10:32:13.128Z,99.99
2022-11-26T10:33:13.097Z,99.99
2022-11-26T10:34:13.094Z,99.99
2022-11-26T10:35:13.090Z,99.99
2022-11-26T10:36:13.088Z,99.99
2022-11-26T10:37:13.077Z,99.99
2022-11-26T10:38:13.074Z,99.99
2022-11-26T10:39:13.068Z,99.99
2022-11-26T10:40:13.065Z,99.99
2022-11-26T10:41:13.056Z,99.99
2022-11-26T10:42:13.054Z,99.99
2022-11-26T10:43:13.048Z,99.99
2022-11-26T10:44:13.046Z,99.99
2022-11-26T10:45:13.040Z,99.99
2022-11-26T10:46:13.084Z,99.99
2022-11-26T10:47:13.029Z,99.99
2022-11-26T10:48:13.049Z,99.99
2022-11-26T10:49:13.020Z,99.99
2022-11-26T10:50:32.242Z,99.99
2022-11-26T10:51:13.008Z,99.99
2022-11-26T10:52:13.014Z,99.99
2022-11-26T10:53:13.000Z,99.99
2022-11-26T10:54:12.999Z,99.99
2022-11-26T10:55:12.990Z,99.99
2022-11-26T10:56:12.991Z,99.99
2022-11-26T10:57:12.987Z,99.99
2022-11-26T10:58:12.978Z,99.99
2022-11-26T10:59:12.988Z,99.99
2022-11-26T11:00:12.967Z,99.99
2022-11-26T11:01:13.075Z,99.99
2022-11-26T11:02:13.037Z,99.99
2022-11-26T11:03:12.950Z,99.99
2022-11-26T11:04:12.964Z,99.99
2022-11-26T11:05:12.955Z,99.99
2022-11-26T11:06:12.935Z,99.99
2022-11-26T11:07:12.976Z,99.99
2022-11-26T11:08:12.923Z,99.99
2022-11-26T11:09:12.920Z,99.99
2022-11-26T11:10:12.915Z,99.99
2022-11-26T11:11:12.915Z,99.99
2022-11-26T11:12:12.915Z,99.99
2022-11-26T11:13:12.924Z,99.99
2022-11-26T11:14:12.895Z,99.99
2022-11-26T11:15:12.891Z,99.99
2022-11-26T11:16:12.914Z,99.99
2022-11-26T11:17:12.888Z,99.99
2022-11-26T11:18:12.885Z,99.99
2022-11-26T11:19:12.872Z,99.99
2022-11-26T11:20:12.902Z,99.99
2022-11-26T11:21:12.867Z,99.99
2022-11-26T11:22:12.859Z,99.99
2022-11-26T11:23:12.855Z,99.99
2022-11-26T11:24:12.850Z,99.99
2022-11-26T11:25:12.845Z,99.99
2022-11-26T11:26:12.838Z,99.99
2022-11-26T11:27:12.836Z,99.99
2022-11-26T11:28:12.883Z,99.99
2022-11-26T11:29:12.823Z,99.99
2022-11-26T11:30:12.822Z,99.99
2022-11-26T11:31:12.883Z,99.99
2022-11-26T11:32:12.809Z,99.99
2022-11-26T11:33:12.804Z,99.99
2022-11-26T11:34:12.800Z,99.99
2022-11-26T11:35:12.797Z,99.99
2022-11-26T11:36:12.824Z,99.99
2022-11-26T11:37:14.730Z,99.99
2022-11-26T11:38:12.781Z,99.99
2022-11-26T11:39:12.779Z,99.99
2022-11-26T11:40:15.874Z,99.99
2022-11-26T11:41:12.772Z,99.99
2022-11-26T11:42:12.777Z,99.99
2022-11-26T11:43:12.764Z,99.99
2022-11-26T11:44:12.755Z,99.99
2022-11-26T11:45:12.749Z,99.99
2022-11-26T11:46:12.786Z,99.99
2022-11-26T11:47:12.741Z,99.99
2022-11-26T11:48:12.735Z,99.99
2022-11-26T11:49:12.731Z,99.99
2022-11-26T11:50:12.727Z,99.99
2022-11-26T11:51:12.722Z,99.99
2022-11-26T11:52:12.732Z,99.99
2022-11-26T11:53:12.711Z,99.99
2022-11-26T11:54:12.709Z,99.99
2022-11-26T11:55:13.052Z,99.99
2022-11-26T11:56:12.701Z,99.99
2022-11-26T11:57:12.691Z,99.99
2022-11-26T11:58:12.713Z,99.99
2022-11-26T11:59:12.683Z,99.99
2022-11-26T12:00:12.693Z,99.99
2022-11-26T12:01:12.672Z,99.99
2022-11-26T12:02:12.738Z,99.99
2022-11-26T12:03:12.664Z,99.99
2022-11-26T12:04:17.920Z,99.99
2022-11-26T12:05:12.776Z,99.99
2022-11-26T12:06:12.651Z,99.99
2022-11-26T12:07:12.675Z,99.99
2022-11-26T12:08:12.765Z,99.99
2022-11-26T12:09:12.637Z,99.91
2022-11-26T12:10:12.631Z,99.99
2022-11-26T12:11:12.627Z,99.99
2022-11-26T12:12:12.621Z,99.99
2022-11-26T12:13:12.618Z,99.60
2022-11-26T12:14:12.615Z,99.40
2022-11-26T12:15:12.616Z,99.81
2022-11-26T12:16:12.720Z,99.81
2022-11-26T12:17:12.599Z,99.51
2022-11-26T12:18:12.595Z,99.71
2022-11-26T12:19:12.608Z,99.81
2022-11-26T12:20:12.588Z,99.60
2022-11-26T12:21:12.590Z,99.30
2022-11-26T12:22:12.574Z,99.71
2022-11-26T12:23:14.814Z,99.40
2022-11-26T12:24:12.586Z,99.60
2022-11-26T12:25:12.561Z,99.81
2022-11-26T12:26:12.555Z,99.71
2022-11-26T12:27:12.555Z,99.60
2022-11-26T12:28:12.544Z,99.40
2022-11-26T12:29:12.543Z,99.71
2022-11-26T12:30:12.535Z,99.60
2022-11-26T12:31:12.533Z,99.71
2022-11-26T12:32:12.621Z,99.30
2022-11-26T12:33:12.522Z,99.09
2022-11-26T12:34:12.527Z,99.19
2022-11-26T12:35:12.514Z,99.09
2022-11-26T12:36:12.521Z,98.99
2022-11-26T12:37:12.503Z,98.84
2022-11-26T12:38:12.503Z,99.35
2022-11-26T12:39:12.495Z,98.94
2022-11-26T12:40:12.525Z,99.35
2022-11-26T12:41:12.488Z,99.35
2022-11-26T12:42:12.482Z,99.25
2022-11-26T12:43:12.477Z,99.15
2022-11-26T12:44:12.473Z,99.25
2022-11-26T12:45:16.263Z,99.35
2022-11-26T12:46:12.478Z,99.35
2022-11-26T12:47:12.459Z,99.46
2022-11-26T12:48:12.454Z,99.31
2022-11-26T12:49:12.450Z,99.35
2022-11-26T12:50:12.533Z,99.46
2022-11-26T12:51:12.441Z,99.35
2022-11-26T12:52:12.438Z,99.25